createdAt,value
2023-05-18T00:02:26.446Z,82.95
2023-05-18T00:05:12.272Z,83.18
2023-05-18T00:07:57.538Z,84.33
2023-05-18T00:10:43.023Z,83.59
2023-05-18T00:13:28.330Z,83.78
2023-05-18T00:16:15.944Z,83.83
2023-05-18T00:19:02.617Z,83.92
2023-05-18T00:21:48.578Z,83.97
2023-05-18T00:24:36.874Z,84.08
2023-05-18T00:27:22.587Z,83.78
2023-05-18T00:30:08.294Z,84.00
2023-05-18T00:32:54.950Z,84.17
2023-05-18T00:35:40.912Z,83.71
2023-05-18T00:38:26.377Z,83.85
2023-05-18T00:41:11.712Z,83.85
2023-05-18T00:43:58.915Z,84.10
2023-05-18T00:46:44.530Z,83.92
2023-05-18T00:49:29.996Z,83.84
2023-05-18T00:52:16.264Z,83.72
2023-05-18T00:55:02.242Z,83.57
2023-05-18T00:57:48.269Z,83.35
2023-05-18T01:00:37.588Z,83.14
2023-05-18T01:03:23.510Z,82.75
2023-05-18T01:06:10.356Z,83.07
2023-05-18T01:08:56.027Z,82.38
2023-05-18T01:12:06.052Z,82.21
2023-05-18T01:15:08.831Z,82.28
2023-05-18T01:18:34.252Z,82.30
2023-05-18T01:21:50.568Z,82.44
2023-05-18T01:24:58.043Z,82.58
2023-05-18T01:27:46.612Z,82.58
2023-05-18T01:30:36.124Z,82.75
2023-05-18T01:33:21.702Z,82.66
2023-05-18T01:36:07.945Z,82.45
2023-05-18T01:38:55.529Z,82.12
2023-05-18T01:42:06.838Z,82.69
2023-05-18T01:44:56.653Z,82.69
2023-05-18T01:47:45.211Z,82.86
2023-05-18T01:50:37.963Z,82.71
2023-05-18T01:53:27.963Z,82.42
2023-05-18T01:56:14.524Z,82.83
2023-05-18T01:59:00.690Z,82.78
2023-05-18T02:01:46.205Z,82.48
2023-05-18T02:04:35.256Z,82.59
2023-05-18T02:07:20.708Z,82.49
2023-05-18T02:10:07.528Z,82.80
2023-05-18T02:12:53.938Z,82.62
2023-05-18T02:15:39.867Z,82.45
2023-05-18T02:18:26.865Z,81.99
2023-05-18T02:21:13.721Z,81.82
2023-05-18T02:23:59.333Z,82.11
2023-05-18T02:26:44.859Z,81.82
2023-05-18T02:29:31.428Z,81.87
2023-05-18T02:32:16.796Z,81.62
2023-05-18T02:35:08.475Z,81.68
2023-05-18T02:37:55.959Z,81.82
2023-05-18T02:40:43.032Z,81.68
2023-05-18T02:43:28.516Z,81.53
2023-05-18T02:46:14.425Z,81.90
2023-05-18T02:48:59.842Z,82.06
2023-05-18T02:51:45.026Z,82.01
2023-05-18T02:54:32.050Z,82.15
2023-05-18T02:57:18.370Z,81.83
2023-05-18T03:00:16.939Z,81.97
2023-05-18T03:03:04.452Z,82.10
2023-05-18T03:05:52.929Z,81.83
2023-05-18T03:08:41.251Z,82.04
2023-05-18T03:11:28.403Z,82.03
2023-05-18T03:14:14.108Z,82.38
2023-05-18T03:17:00.516Z,82.65
2023-05-18T03:19:46.523Z,82.42
2023-05-18T03:22:31.887Z,82.66
2023-05-18T03:25:17.250Z,82.88
2023-05-18T03:28:05.783Z,83.25
2023-05-18T03:30:51.635Z,83.29
2023-05-18T03:33:37.170Z,83.61
2023-05-18T03:36:23.065Z,83.79
2023-05-18T03:39:08.588Z,83.60
2023-05-18T03:41:54.179Z,83.90
2023-05-18T03:44:39.450Z,83.88
2023-05-18T03:47:25.242Z,84.13
2023-05-18T03:50:11.166Z,84.09
2023-05-18T03:52:56.930Z,84.40
2023-05-18T03:55:43.270Z,84.03
2023-05-18T03:58:29.297Z,84.26
2023-05-18T04:01:18.753Z,84.15
2023-05-18T04:04:04.736Z,84.58
2023-05-18T04:06:53.680Z,84.61
2023-05-18T04:09:39.592Z,85.06
2023-05-18T04:12:25.516Z,85.11
2023-05-18T04:15:14.788Z,85.10
2023-05-18T04:18:02.119Z,85.16
2023-05-18T04:20:47.522Z,85.17
2023-05-18T04:23:38.882Z,85.09
2023-05-18T04:26:25.002Z,85.01
2023-05-18T04:29:10.951Z,84.95
2023-05-18T04:32:00.936Z,85.31
2023-05-18T04:34:49.692Z,84.80
2023-05-18T04:37:35.510Z,84.74
2023-05-18T04:40:22.733Z,84.98
2023-05-18T04:43:10.231Z,85.12
2023-05-18T04:45:58.171Z,85.46
2023-05-18T04:48:44.230Z,85.08
2023-05-18T04:51:30.583Z,85.03
2023-05-18T04:54:17.472Z,84.62
2023-05-18T04:57:03.674Z,84.53
2023-05-18T04:59:49.223Z,84.61
2023-05-18T05:02:34.740Z,84.86
2023-05-18T05:05:21.394Z,84.34
2023-05-18T05:08:07.361Z,84.55
2023-05-18T05:10:52.437Z,84.64
2023-05-18T05:13:38.281Z,84.67
2023-05-18T05:16:23.812Z,84.37
2023-05-18T05:19:09.424Z,84.59
2023-05-18T05:21:55.105Z,84.50
2023-05-18T05:24:40.542Z,84.95
2023-05-18T05:27:26.310Z,85.01
2023-05-18T05:30:12.287Z,84.90
2023-05-18T05:32:59.860Z,84.84
2023-05-18T05:35:46.573Z,84.58
2023-05-18T05:38:32.990Z,84.38
2023-05-18T05:41:19.600Z,84.03
2023-05-18T05:44:05.077Z,84.07
2023-05-18T05:46:50.601Z,83.91
2023-05-18T05:49:36.814Z,83.94
2023-05-18T05:52:22.612Z,84.11
2023-05-18T05:55:07.986Z,84.19
2023-05-18T05:57:55.168Z,83.74
2023-05-18T06:00:40.745Z,83.98
2023-05-18T06:03:26.804Z,84.17
2023-05-18T06:06:13.501Z,84.46
2023-05-18T06:08:59.620Z,84.58
2023-05-18T06:11:44.976Z,84.42
2023-05-18T06:14:30.914Z,84.64
2023-05-18T06:17:16.649Z,84.76
2023-05-18T06:20:04.485Z,85.07
2023-05-18T06:22:49.866Z,85.64
2023-05-18T06:26:04.294Z,85.64
2023-05-18T06:28:49.873Z,85.66
2023-05-18T06:31:59.261Z,86.24
2023-05-18T06:34:56.634Z,86.54
2023-05-18T06:37:42.577Z,86.74
2023-05-18T06:40:28.730Z,86.88
2023-05-18T06:43:13.975Z,87.11
2023-05-18T06:46:08.115Z,86.97
2023-05-18T06:48:58.486Z,86.96
2023-05-18T06:51:43.953Z,87.51
2023-05-18T06:54:30.679Z,87.74
2023-05-18T06:57:18.289Z,88.25
2023-05-18T07:00:07.176Z,88.04
2023-05-18T07:02:53.699Z,88.58
2023-05-18T07:05:39.927Z,88.35
2023-05-18T07:08:25.924Z,88.17
2023-05-18T07:11:11.119Z,88.44
2023-05-18T07:13:56.618Z,88.66
2023-05-18T07:16:44.042Z,88.66
2023-05-18T07:19:29.360Z,88.17
2023-05-18T07:22:14.829Z,88.61
2023-05-18T07:25:00.821Z,88.69
2023-05-18T07:27:46.448Z,88.80
2023-05-18T07:30:32.115Z,88.85
2023-05-18T07:33:17.589Z,88.95
2023-05-18T07:36:03.680Z,88.91
2023-05-18T07:38:54.866Z,89.23
2023-05-18T07:41:40.399Z,89.53
2023-05-18T07:44:25.831Z,89.57
2023-05-18T07:47:11.748Z,89.76
2023-05-18T07:49:57.111Z,89.72
2023-05-18T07:52:42.526Z,89.74
2023-05-18T07:55:27.889Z,89.95
2023-05-18T07:58:13.513Z,90.27
2023-05-18T08:00:59.179Z,90.10
2023-05-18T08:03:44.595Z,90.29
2023-05-18T08:06:30.471Z,90.09
2023-05-18T08:09:15.943Z,90.51
2023-05-18T08:12:01.884Z,90.11
2023-05-18T08:14:47.132Z,90.01
2023-05-18T08:17:32.361Z,90.17
2023-05-18T08:20:18.125Z,89.89
2023-05-18T08:23:03.445Z,89.78
2023-05-18T08:25:48.780Z,90.09
2023-05-18T08:28:34.508Z,89.76
2023-05-18T08:31:20.247Z,89.74
2023-05-18T08:34:06.479Z,89.61
2023-05-18T08:36:52.578Z,89.77
2023-05-18T08:39:38.317Z,89.33
2023-05-18T08:42:46.077Z,89.21
2023-05-18T08:45:48.711Z,89.36
2023-05-18T08:48:36.450Z,89.32
2023-05-18T08:51:22.729Z,89.19
2023-05-18T08:54:10.772Z,88.53
2023-05-18T08:56:57.195Z,88.50
2023-05-18T08:59:44.479Z,88.52
2023-05-18T09:02:33.556Z,87.92
2023-05-18T09:05:21.204Z,87.12
2023-05-18T09:08:07.701Z,87.17
2023-05-18T09:10:58.440Z,86.37
2023-05-18T09:13:44.925Z,85.77
2023-05-18T09:16:30.696Z,84.98
2023-05-18T09:19:16.486Z,85.37
2023-05-18T09:22:02.318Z,85.57
2023-05-18T09:24:49.124Z,85.94
2023-05-18T09:27:34.497Z,86.32
2023-05-18T09:30:20.051Z,86.60
2023-05-18T09:33:05.428Z,86.47
2023-05-18T09:35:51.887Z,86.52
2023-05-18T09:38:39.354Z,87.05
2023-05-18T09:41:27.251Z,87.76
2023-05-18T09:44:12.788Z,87.83
2023-05-18T09:46:58.438Z,87.80
2023-05-18T09:49:43.735Z,88.09
2023-05-18T09:52:29.979Z,88.28
2023-05-18T09:55:20.062Z,88.90
2023-05-18T09:58:08.103Z,88.44
2023-05-18T10:00:56.990Z,88.50
2023-05-18T10:03:45.174Z,88.36
2023-05-18T10:06:31.772Z,87.04
2023-05-18T10:09:17.886Z,87.10
2023-05-18T10:12:03.403Z,86.91
2023-05-18T10:14:49.467Z,86.74
2023-05-18T10:17:37.828Z,86.72
2023-05-18T10:20:24.548Z,86.70
2023-05-18T10:23:11.890Z,86.65
2023-05-18T10:25:58.066Z,86.52
2023-05-18T10:28:47.582Z,85.60
2023-05-18T10:31:37.295Z,85.03
2023-05-18T10:34:24.702Z,84.87
2023-05-18T10:37:12.109Z,84.91
2023-05-18T10:40:00.196Z,85.03
2023-05-18T10:42:46.641Z,85.14
2023-05-18T10:45:36.036Z,85.10
2023-05-18T10:48:23.252Z,84.98
2023-05-18T10:51:09.144Z,84.64
2023-05-18T10:53:56.234Z,84.07
2023-05-18T10:56:46.917Z,83.91
2023-05-18T10:59:33.248Z,83.15
2023-05-18T11:02:20.562Z,82.91
2023-05-18T11:05:07.477Z,83.34
2023-05-18T11:08:05.795Z,82.49
2023-05-18T11:11:00.346Z,81.98
2023-05-18T11:13:49.754Z,81.38
2023-05-18T11:16:36.746Z,81.01
2023-05-18T11:19:26.418Z,81.43
2023-05-18T11:22:12.720Z,81.82
2023-05-18T11:24:58.061Z,82.57
2023-05-18T11:27:43.592Z,82.07
2023-05-18T11:30:45.005Z,82.48
2023-05-18T11:33:30.831Z,81.61
2023-05-18T11:36:23.298Z,82.00
2023-05-18T11:39:11.078Z,82.57
2023-05-18T11:42:01.451Z,81.42
2023-05-18T11:44:56.770Z,81.52
2023-05-18T11:47:42.382Z,81.87
2023-05-18T11:50:31.215Z,82.43
2023-05-18T11:53:17.429Z,81.24
2023-05-18T11:56:02.953Z,81.20
2023-05-18T11:59:12.719Z,81.64
2023-05-18T12:02:01.236Z,80.75
2023-05-18T12:04:50.609Z,80.75
2023-05-18T12:07:37.189Z,81.08
2023-05-18T12:10:23.172Z,81.32
2023-05-18T12:13:09.144Z,81.52
2023-05-18T12:15:58.834Z,81.40
2023-05-18T12:18:52.800Z,80.07
2023-05-18T12:21:38.380Z,80.84
2023-05-18T12:24:23.683Z,79.86
2023-05-18T12:27:11.639Z,80.69
2023-05-18T12:29:57.475Z,80.36
2023-05-18T12:32:48.511Z,79.99
2023-05-18T12:35:34.263Z,79.74
2023-05-18T12:38:20.198Z,79.50
2023-05-18T12:41:06.632Z,80.53
2023-05-18T12:43:55.144Z,80.17
2023-05-18T12:46:43.215Z,79.72
2023-05-18T12:49:28.719Z,78.35
2023-05-18T12:52:16.645Z,78.68
2023-05-18T12:55:04.905Z,79.28
2023-05-18T12:58:02.098Z,79.63
2023-05-18T13:00:48.586Z,79.70
2023-05-18T13:03:35.162Z,79.45
2023-05-18T13:06:20.746Z,79.06
2023-05-18T13:09:12.310Z,79.15
2023-05-18T13:12:07.838Z,78.51
2023-05-18T13:14:53.683Z,78.01
2023-05-18T13:17:48.528Z,78.60
2023-05-18T13:20:53.014Z,78.78
2023-05-18T13:23:39.466Z,78.91
2023-05-18T13:26:25.605Z,78.47
2023-05-18T13:29:11.161Z,78.57
2023-05-18T13:31:56.790Z,78.10
2023-05-18T13:34:43.099Z,77.46
2023-05-18T13:37:28.544Z,77.82
2023-05-18T13:40:14.310Z,77.55
2023-05-18T13:43:00.509Z,78.08
2023-05-18T13:45:47.339Z,78.93
2023-05-18T13:48:32.801Z,79.05
2023-05-18T13:51:18.343Z,79.29
2023-05-18T13:54:04.468Z,78.75
2023-05-18T13:56:50.150Z,78.42
2023-05-18T13:59:35.610Z,78.60
2023-05-18T14:02:21.979Z,78.25
2023-05-18T14:05:10.943Z,78.30
2023-05-18T14:07:56.911Z,78.50
2023-05-18T14:10:42.512Z,78.14
2023-05-18T14:13:28.414Z,77.96
2023-05-18T14:16:13.948Z,78.22
2023-05-18T14:18:59.197Z,78.46
2023-05-18T14:21:44.538Z,78.43
2023-05-18T14:24:29.683Z,78.87
2023-05-18T14:27:15.529Z,78.63
2023-05-18T14:31:36.423Z,78.04
2023-05-18T14:34:22.342Z,78.69
2023-05-18T14:37:07.728Z,78.39
2023-05-18T14:39:53.207Z,78.22
2023-05-18T14:42:38.517Z,78.54
2023-05-18T14:45:24.096Z,78.26
2023-05-18T14:48:10.842Z,78.36
2023-05-18T14:50:56.711Z,77.78
2023-05-18T14:53:43.370Z,78.16
2023-05-18T14:56:29.897Z,78.13
2023-05-18T14:59:15.671Z,78.37
2023-05-18T15:02:01.275Z,78.89
2023-05-18T15:04:46.603Z,78.55
2023-05-18T15:07:31.923Z,78.54
2023-05-18T15:10:17.300Z,79.11
2023-05-18T15:13:02.839Z,79.13
2023-05-18T15:15:49.492Z,79.29
2023-05-18T15:18:34.862Z,79.39
2023-05-18T15:21:20.584Z,79.32
2023-05-18T15:24:06.540Z,79.52
2023-05-18T15:26:52.022Z,79.72
2023-05-18T15:29:37.782Z,80.11
2023-05-18T15:32:23.823Z,79.99
2023-05-18T15:35:10.124Z,80.38
2023-05-18T15:37:56.766Z,81.03
2023-05-18T15:40:46.691Z,80.87
2023-05-18T15:43:32.252Z,81.24
2023-05-18T15:46:18.808Z,81.12
2023-05-18T15:49:04.246Z,81.36
2023-05-18T15:51:49.740Z,81.17
2023-05-18T15:54:36.415Z,81.46
2023-05-18T15:57:22.396Z,81.68
2023-05-18T16:00:08.610Z,81.77
2023-05-18T16:03:00.556Z,81.84
2023-05-18T16:05:46.444Z,81.70
2023-05-18T16:08:32.215Z,81.32
2023-05-18T16:11:18.472Z,81.54
2023-05-18T16:14:05.222Z,81.72
2023-05-18T16:16:51.016Z,81.44
2023-05-18T16:19:36.936Z,81.75
2023-05-18T16:22:22.766Z,81.92
2023-05-18T16:25:09.323Z,82.13
2023-05-18T16:27:54.919Z,82.17
2023-05-18T16:30:41.248Z,81.82
2023-05-18T16:33:28.118Z,82.20
2023-05-18T16:36:14.346Z,82.37
2023-05-18T16:39:02.900Z,82.32
2023-05-18T16:41:48.263Z,82.48
2023-05-18T16:44:34.724Z,82.58
2023-05-18T16:47:22.918Z,82.77
2023-05-18T16:50:09.532Z,82.57
2023-05-18T16:52:55.002Z,82.25
2023-05-18T16:55:44.418Z,82.83
2023-05-18T16:58:31.312Z,82.86
2023-05-18T17:01:27.194Z,83.13
2023-05-18T17:04:14.150Z,82.91
2023-05-18T17:07:00.309Z,82.83
2023-05-18T17:09:46.168Z,82.62
2023-05-18T17:12:32.427Z,82.65
2023-05-18T17:15:18.437Z,82.96
2023-05-18T17:18:05.265Z,83.14
2023-05-18T17:20:51.566Z,83.39
2023-05-18T17:23:36.956Z,83.50
2023-05-18T17:26:22.950Z,83.53
2023-05-18T17:29:09.845Z,83.79
2023-05-18T17:31:55.903Z,84.09
2023-05-18T17:34:41.585Z,84.55
2023-05-18T17:37:27.832Z,84.65
2023-05-18T17:40:13.576Z,84.61
2023-05-18T17:42:59.441Z,85.20
2023-05-18T17:45:45.037Z,85.27
2023-05-18T17:48:30.524Z,85.35
2023-05-18T17:51:16.334Z,85.83
2023-05-18T17:54:01.734Z,85.65
2023-05-18T17:56:47.317Z,85.85
2023-05-18T17:59:32.935Z,86.51
2023-05-18T18:02:18.311Z,86.10
2023-05-18T18:05:04.539Z,86.19
2023-05-18T18:07:49.962Z,86.35
2023-05-18T18:10:35.731Z,86.29
2023-05-18T18:13:21.279Z,85.73
2023-05-18T18:16:06.836Z,85.54
2023-05-18T18:18:52.399Z,86.12
2023-05-18T18:21:37.748Z,85.85
2023-05-18T18:24:23.743Z,86.12
2023-05-18T18:27:10.447Z,85.59
2023-05-18T18:29:56.394Z,85.12
2023-05-18T18:32:41.703Z,85.24
2023-05-18T18:35:27.140Z,85.74
2023-05-18T18:38:15.237Z,85.48
2023-05-18T18:41:04.364Z,85.44
2023-05-18T18:43:54.068Z,85.41
2023-05-18T18:46:40.273Z,85.45
2023-05-18T18:49:26.521Z,84.81
2023-05-18T18:52:13.882Z,84.68
2023-05-18T18:54:59.866Z,84.52
2023-05-18T18:57:45.671Z,84.13
2023-05-18T19:00:31.668Z,83.95
2023-05-18T19:03:17.199Z,84.09
2023-05-18T19:06:02.580Z,83.70
2023-05-18T19:08:47.906Z,83.78
2023-05-18T19:11:33.200Z,83.52
2023-05-18T19:14:18.640Z,83.58
2023-05-18T19:17:04.372Z,83.69
2023-05-18T19:19:52.197Z,83.42
2023-05-18T19:22:37.674Z,83.57
2023-05-18T19:25:24.643Z,83.35
2023-05-18T19:28:12.213Z,83.50
2023-05-18T19:30:57.988Z,83.41
2023-05-18T19:33:43.595Z,83.80
2023-05-18T19:36:29.340Z,83.50
2023-05-18T19:39:20.436Z,83.62
2023-05-18T19:42:08.265Z,83.53
2023-05-18T19:44:56.472Z,83.87
2023-05-18T19:47:42.419Z,83.98
2023-05-18T19:50:29.230Z,84.12
2023-05-18T19:53:14.737Z,84.39
2023-05-18T19:56:01.258Z,84.91
2023-05-18T19:58:47.103Z,85.22
2023-05-18T20:01:32.580Z,85.96
2023-05-18T20:04:23.666Z,86.00
2023-05-18T20:07:09.742Z,86.05
2023-05-18T20:09:55.304Z,86.36
2023-05-18T20:12:40.717Z,86.71
2023-05-18T20:15:27.993Z,87.16
2023-05-18T20:18:13.234Z,87.45
2023-05-18T20:21:02.065Z,88.12
2023-05-18T20:23:48.169Z,88.27
2023-05-18T20:26:34.265Z,88.27
2023-05-18T20:29:19.973Z,89.10
2023-05-18T20:32:07.875Z,89.48
2023-05-18T20:34:53.167Z,89.65
2023-05-18T20:37:41.495Z,89.77
2023-05-18T20:40:30.822Z,89.37
2023-05-18T20:43:17.861Z,89.13
2023-05-18T20:46:08.098Z,89.56
2023-05-18T20:48:55.255Z,89.82
2023-05-18T20:51:41.469Z,89.92
2023-05-18T20:54:28.166Z,89.92
2023-05-18T20:57:14.279Z,89.63
2023-05-18T20:59:59.579Z,90.06
2023-05-18T21:02:46.704Z,89.69
2023-05-18T21:05:33.347Z,90.13
2023-05-18T21:08:18.864Z,89.78
2023-05-18T21:11:04.208Z,90.23
2023-05-18T21:13:49.636Z,90.03
2023-05-18T21:16:35.117Z,90.13
2023-05-18T21:19:21.080Z,89.59
2023-05-18T21:22:06.373Z,89.65
2023-05-18T21:24:51.678Z,89.47
2023-05-18T21:27:37.369Z,89.62
2023-05-18T21:30:23.039Z,90.15
2023-05-18T21:33:08.651Z,90.11
2023-05-18T21:35:54.330Z,90.16
2023-05-18T21:38:39.592Z,90.47
2023-05-18T21:41:24.966Z,90.22
2023-05-18T21:44:10.720Z,90.27
2023-05-18T21:46:57.955Z,90.32
2023-05-18T21:49:44.249Z,90.67
2023-05-18T21:52:30.556Z,90.54
2023-05-18T21:55:16.278Z,90.85
2023-05-18T21:58:01.468Z,90.74
2023-05-18T22:00:47.039Z,90.32
2023-05-18T22:03:32.395Z,90.39
2023-05-18T22:06:18.062Z,90.38
2023-05-18T22:09:04.272Z,90.20
2023-05-18T22:11:49.928Z,90.38
2023-05-18T22:14:35.876Z,90.31
2023-05-18T22:17:21.734Z,90.51
2023-05-18T22:20:09.503Z,90.81
2023-05-18T22:22:55.048Z,90.44
2023-05-18T22:25:40.707Z,90.37
2023-05-18T22:28:26.243Z,90.60
2023-05-18T22:31:11.908Z,90.17
2023-05-18T22:33:57.387Z,90.04
2023-05-18T22:36:42.945Z,90.65
2023-05-18T22:39:28.323Z,90.18
2023-05-18T22:42:13.739Z,90.18
2023-05-18T22:44:59.085Z,90.31
2023-05-18T22:47:45.309Z,90.71
2023-05-18T22:50:31.200Z,90.86
2023-05-18T22:53:16.663Z,90.63
2023-05-18T22:56:02.385Z,90.66
2023-05-18T22:58:48.074Z,90.60
2023-05-18T23:01:33.446Z,90.49
2023-05-18T23:04:19.674Z,90.76
2023-05-18T23:07:05.489Z,90.61
2023-05-18T23:09:52.318Z,90.82
2023-05-18T23:12:38.600Z,91.43
2023-05-18T23:15:24.318Z,91.55
2023-05-18T23:18:10.182Z,91.31
2023-05-18T23:20:55.784Z,90.63
2023-05-18T23:23:41.589Z,90.52
2023-05-18T23:26:27.642Z,90.31
2023-05-18T23:29:13.043Z,90.69
2023-05-18T23:31:58.414Z,90.71
2023-05-18T23:34:44.430Z,90.48
2023-05-18T23:37:32.404Z,90.67
2023-05-18T23:40:19.391Z,91.04
2023-05-18T23:43:05.018Z,90.36
2023-05-18T23:45:51.156Z,91.02
2023-05-18T23:48:36.725Z,91.17
2023-05-18T23:51:22.722Z,91.19
2023-05-18T23:54:09.448Z,91.23
2023-05-18T23:56:59.610Z,91.02
2023-05-18T23:59:45.671Z,91.37
